createdAt,value
2022-10-18T00:01:39.885Z,6.30
2022-10-18T00:04:08.662Z,6.67
2022-10-18T00:06:42.585Z,6.90
2022-10-18T00:09:15.189Z,6.60
2022-10-18T00:11:46.179Z,6.80
2022-10-18T00:14:14.777Z,6.60
2022-10-18T00:16:43.224Z,6.50
2022-10-18T00:19:11.811Z,6.70
2022-10-18T00:21:42.261Z,5.93
2022-10-18T00:24:10.860Z,6.47
2022-10-18T00:26:39.613Z,6.20
2022-10-18T00:29:08.389Z,6.03
2022-10-18T00:31:39.736Z,5.83
2022-10-18T00:34:13.070Z,6.07
2022-10-18T00:36:44.655Z,6.13
2022-10-18T00:39:21.264Z,6.00
2022-10-18T00:41:51.768Z,6.03
2022-10-18T00:45:15.624Z,5.80
2022-10-18T00:47:57.070Z,5.00
2022-10-18T00:50:29.026Z,5.47
2022-10-18T00:53:02.703Z,4.93
2022-10-18T00:55:34.874Z,5.50
2022-10-18T00:58:05.081Z,5.37
2022-10-18T01:00:35.048Z,5.47
2022-10-18T01:03:04.014Z,6.77
2022-10-18T01:05:33.760Z,5.20
2022-10-18T01:08:32.746Z,5.77
2022-10-18T01:11:37.448Z,4.90
2022-10-18T01:14:35.417Z,4.70
2022-10-18T01:17:19.976Z,5.47
2022-10-18T01:21:19.966Z,4.93
2022-10-18T01:24:32.455Z,4.80
2022-10-18T01:27:45.398Z,5.03
2022-10-18T01:30:39.561Z,5.47
2022-10-18T01:33:21.639Z,5.40
2022-10-18T01:35:58.117Z,5.00
2022-10-18T01:38:31.309Z,5.00
2022-10-18T01:41:02.440Z,5.43
2022-10-18T01:43:59.835Z,5.10
2022-10-18T01:46:31.085Z,5.93
2022-10-18T01:49:00.978Z,5.63
2022-10-18T01:51:32.625Z,6.27
2022-10-18T01:54:02.450Z,6.87
2022-10-18T01:56:46.618Z,5.20
2022-10-18T01:59:42.857Z,4.83
2022-10-18T02:02:43.990Z,4.80
2022-10-18T02:05:24.220Z,5.20
2022-10-18T02:08:12.523Z,4.93
2022-10-18T02:10:57.132Z,5.90
2022-10-18T02:13:31.754Z,6.20
2022-10-18T02:16:09.299Z,6.50
2022-10-18T02:18:46.492Z,5.30
2022-10-18T02:21:21.152Z,5.17
2022-10-18T02:23:50.683Z,4.87
2022-10-18T02:26:44.603Z,5.23
2022-10-18T02:29:14.219Z,5.73
2022-10-18T02:31:47.765Z,5.43
2022-10-18T02:34:23.680Z,5.10
2022-10-18T02:36:56.224Z,5.93
2022-10-18T02:39:32.075Z,5.60
2022-10-18T02:42:00.725Z,5.70
2022-10-18T02:44:29.309Z,6.00
2022-10-18T02:46:58.015Z,5.47
2022-10-18T02:49:28.531Z,4.60
2022-10-18T02:52:46.624Z,5.33
2022-10-18T02:55:15.310Z,5.50
2022-10-18T02:57:44.089Z,5.83
2022-10-18T03:00:14.377Z,5.63
2022-10-18T03:02:42.886Z,5.60
2022-10-18T03:05:12.913Z,5.53
2022-10-18T03:07:41.855Z,5.60
2022-10-18T03:10:11.046Z,5.40
2022-10-18T03:12:39.825Z,5.73
2022-10-18T03:15:09.582Z,6.07
2022-10-18T03:17:38.597Z,5.73
2022-10-18T03:20:08.993Z,5.57
2022-10-18T03:22:39.212Z,5.13
2022-10-18T03:25:08.714Z,5.63
2022-10-18T03:27:37.554Z,5.47
2022-10-18T03:30:07.447Z,5.43
2022-10-18T03:32:36.315Z,5.47
2022-10-18T03:35:05.966Z,5.97
2022-10-18T03:37:35.610Z,5.67
2022-10-18T03:40:08.100Z,5.90
2022-10-18T03:42:52.676Z,6.17
2022-10-18T03:45:21.737Z,5.60
2022-10-18T03:47:50.564Z,5.27
2022-10-18T03:50:19.723Z,5.97
2022-10-18T03:52:52.220Z,5.53
2022-10-18T03:55:34.697Z,5.80
2022-10-18T03:58:03.505Z,5.70
2022-10-18T04:00:32.514Z,4.87
2022-10-18T04:03:02.319Z,5.67
2022-10-18T04:05:31.704Z,5.57
2022-10-18T04:08:00.642Z,5.60
2022-10-18T04:10:29.496Z,4.67
2022-10-18T04:12:59.887Z,5.03
2022-10-18T04:15:28.729Z,6.33
2022-10-18T04:17:58.656Z,5.47
2022-10-18T04:20:28.070Z,5.23
2022-10-18T04:22:58.193Z,5.13
2022-10-18T04:25:27.368Z,4.97
2022-10-18T04:27:56.360Z,5.00
2022-10-18T04:30:26.630Z,5.30
2022-10-18T04:32:55.496Z,5.23
2022-10-18T04:35:26.353Z,5.77
2022-10-18T04:37:55.624Z,5.60
2022-10-18T04:40:24.564Z,5.13
2022-10-18T04:42:53.460Z,5.10
2022-10-18T04:45:22.152Z,4.67
2022-10-18T04:47:52.620Z,4.97
2022-10-18T04:50:21.498Z,5.30
2022-10-18T04:55:24.424Z,5.63
2022-10-18T04:57:54.225Z,6.03
2022-10-18T05:00:23.266Z,5.87
2022-10-18T05:02:59.163Z,6.10
2022-10-18T05:05:49.730Z,5.67
2022-10-18T05:08:16.998Z,5.90
2022-10-18T05:10:45.803Z,5.40
2022-10-18T05:13:39.358Z,5.40
2022-10-18T05:16:09.296Z,6.23
2022-10-18T05:18:39.834Z,5.93
2022-10-18T05:21:08.915Z,5.50
2022-10-18T05:23:37.721Z,6.10
2022-10-18T05:26:09.158Z,5.60
2022-10-18T05:28:40.432Z,6.03
2022-10-18T05:31:12.508Z,5.30
2022-10-18T05:33:42.701Z,5.53
2022-10-18T05:36:11.992Z,5.53
2022-10-18T05:38:43.431Z,5.90
2022-10-18T05:41:13.684Z,6.50
2022-10-18T05:43:42.919Z,6.77
2022-10-18T05:46:15.301Z,6.03
2022-10-18T05:48:51.429Z,6.37
2022-10-18T05:51:20.603Z,6.47
2022-10-18T05:54:14.953Z,6.20
2022-10-18T05:56:43.800Z,5.00
2022-10-18T05:59:12.597Z,6.07
2022-10-18T06:01:42.949Z,6.27
2022-10-18T06:04:18.481Z,6.03
2022-10-18T06:06:47.124Z,5.93
2022-10-18T06:09:15.727Z,5.93
2022-10-18T06:11:44.256Z,6.40
2022-10-18T06:14:12.772Z,6.17
2022-10-18T06:16:41.557Z,14.90
2022-10-18T06:19:36.990Z,9.73
2022-10-18T06:22:30.032Z,8.97
2022-10-18T06:24:58.648Z,8.23
2022-10-18T06:27:27.552Z,7.57
2022-10-18T06:29:56.398Z,8.20
2022-10-18T06:32:25.394Z,9.07
2022-10-18T06:34:55.550Z,8.80
2022-10-18T06:37:24.473Z,7.63
2022-10-18T06:39:52.948Z,7.90
2022-10-18T06:42:22.687Z,7.50
2022-10-18T06:44:51.853Z,8.03
2022-10-18T06:47:20.595Z,8.03
2022-10-18T06:49:49.220Z,7.70
2022-10-18T06:52:25.730Z,9.10
2022-10-18T06:54:54.590Z,9.43
2022-10-18T06:57:23.263Z,8.87
2022-10-18T06:59:52.079Z,8.23
2022-10-18T07:02:20.781Z,7.70
2022-10-18T07:04:49.273Z,8.07
2022-10-18T07:07:21.239Z,7.83
2022-10-18T07:09:49.962Z,7.50
2022-10-18T07:12:19.601Z,7.20
2022-10-18T07:14:48.577Z,7.50
2022-10-18T07:17:17.278Z,7.77
2022-10-18T07:19:45.968Z,7.20
2022-10-18T07:22:14.615Z,6.53
2022-10-18T07:24:44.490Z,7.37
2022-10-18T07:27:39.085Z,7.13
2022-10-18T07:30:10.219Z,7.20
2022-10-18T07:32:39.271Z,6.10
2022-10-18T07:35:08.918Z,5.33
2022-10-18T07:37:37.645Z,6.67
2022-10-18T07:40:09.809Z,6.20
2022-10-18T07:42:38.284Z,5.83
2022-10-18T07:45:07.630Z,7.47
2022-10-18T07:47:36.496Z,6.97
2022-10-18T07:50:05.545Z,7.40
2022-10-18T07:52:34.052Z,6.70
2022-10-18T07:55:02.562Z,7.70
2022-10-18T07:57:32.747Z,9.30
2022-10-18T08:00:01.492Z,6.77
2022-10-18T08:02:30.046Z,7.00
2022-10-18T08:04:58.473Z,7.53
2022-10-18T08:07:34.728Z,7.67
2022-10-18T08:10:03.345Z,7.00
2022-10-18T08:12:39.203Z,8.63
2022-10-18T08:15:08.893Z,7.70
2022-10-18T08:17:37.364Z,8.67
2022-10-18T08:20:12.327Z,7.93
2022-10-18T08:22:59.091Z,8.07
2022-10-18T08:25:29.036Z,8.43
2022-10-18T08:27:59.436Z,9.23
2022-10-18T08:30:27.895Z,9.00
2022-10-18T08:32:56.366Z,8.43
2022-10-18T08:35:24.840Z,9.30
2022-10-18T08:37:53.375Z,9.30
2022-10-18T08:40:21.850Z,8.90
2022-10-18T08:43:21.568Z,9.70
2022-10-18T08:46:18.362Z,9.73
2022-10-18T08:48:51.236Z,8.97
2022-10-18T08:51:34.470Z,10.70
2022-10-18T08:54:11.671Z,9.53
2022-10-18T08:56:44.325Z,9.90
2022-10-18T08:59:15.163Z,9.00
2022-10-18T09:02:02.804Z,9.73
2022-10-18T09:04:47.720Z,10.10
2022-10-18T09:08:02.663Z,10.17
2022-10-18T09:10:45.492Z,9.60
2022-10-18T09:14:04.625Z,9.47
2022-10-18T09:16:46.857Z,9.77
2022-10-18T09:19:32.914Z,9.23
2022-10-18T09:22:13.172Z,9.47
2022-10-18T09:24:47.651Z,9.70
2022-10-18T09:27:20.224Z,9.50
2022-10-18T09:30:08.531Z,9.33
2022-10-18T09:32:52.429Z,10.50
2022-10-18T09:35:28.644Z,9.97
2022-10-18T09:38:06.701Z,9.70
2022-10-18T09:40:45.806Z,8.50
2022-10-18T09:43:22.410Z,8.83
2022-10-18T09:45:54.676Z,9.00
2022-10-18T09:48:30.468Z,9.27
2022-10-18T09:51:04.529Z,9.07
2022-10-18T09:53:44.324Z,8.27
2022-10-18T09:56:19.062Z,8.43
2022-10-18T09:58:51.442Z,8.30
2022-10-18T10:01:24.849Z,6.70
2022-10-18T10:03:54.963Z,6.33
2022-10-18T10:06:29.126Z,7.07
2022-10-18T10:09:06.202Z,6.87
2022-10-18T10:11:40.328Z,6.50
2022-10-18T10:14:17.502Z,7.00
2022-10-18T10:16:52.494Z,6.10
2022-10-18T10:19:29.259Z,6.77
2022-10-18T10:22:04.724Z,5.97
2022-10-18T10:24:49.853Z,6.93
2022-10-18T10:27:25.713Z,7.30
2022-10-18T10:30:05.776Z,7.17
2022-10-18T10:32:48.478Z,7.33
2022-10-18T10:38:26.440Z,7.30
2022-10-18T10:40:55.810Z,7.67
2022-10-18T10:43:43.792Z,6.70
2022-10-18T10:46:14.913Z,6.30
2022-10-18T10:49:00.389Z,6.60
2022-10-18T10:51:42.761Z,6.23
2022-10-18T10:54:17.629Z,5.07
2022-10-18T10:56:59.343Z,5.60
2022-10-18T10:59:33.488Z,5.33
2022-10-18T11:02:22.496Z,5.93
2022-10-18T11:04:53.575Z,5.90
2022-10-18T11:07:52.518Z,5.40
2022-10-18T11:10:26.744Z,5.60
2022-10-18T11:13:05.214Z,6.30
2022-10-18T11:15:41.551Z,6.07
2022-10-18T11:18:24.243Z,4.97
2022-10-18T11:21:00.735Z,4.90
2022-10-18T11:23:34.388Z,4.83
2022-10-18T11:26:45.524Z,5.47
2022-10-18T11:29:42.467Z,4.60
2022-10-18T11:32:23.179Z,4.93
2022-10-18T11:35:10.034Z,4.47
2022-10-18T11:38:17.220Z,4.43
2022-10-18T11:41:17.157Z,4.00
2022-10-18T11:44:02.698Z,5.87
2022-10-18T11:46:50.389Z,3.83
2022-10-18T11:49:43.929Z,4.10
2022-10-18T11:52:20.965Z,3.67
2022-10-18T11:55:06.248Z,3.80
2022-10-18T11:57:58.865Z,4.17
2022-10-18T12:00:50.019Z,4.00
2022-10-18T12:03:42.150Z,3.63
2022-10-18T12:06:18.964Z,3.30
2022-10-18T12:08:54.538Z,3.00
2022-10-18T12:11:30.784Z,2.67
2022-10-18T12:14:05.721Z,3.70
2022-10-18T12:16:51.002Z,2.60
2022-10-18T12:19:27.244Z,2.50
2022-10-18T12:21:59.221Z,2.60
2022-10-18T12:24:32.870Z,2.50
2022-10-18T12:27:03.540Z,3.07
2022-10-18T12:29:46.678Z,2.70
2022-10-18T12:32:26.093Z,2.73
2022-10-18T12:34:59.933Z,2.77
2022-10-18T12:38:07.232Z,2.80
2022-10-18T12:41:01.647Z,2.37
2022-10-18T12:43:36.783Z,2.40
2022-10-18T12:46:13.576Z,2.40
2022-10-18T12:48:45.796Z,2.17
2022-10-18T12:51:18.747Z,2.40
2022-10-18T12:53:50.374Z,2.30
2022-10-18T12:56:41.843Z,2.30
2022-10-18T12:59:49.964Z,2.37
2022-10-18T13:02:37.849Z,2.53
2022-10-18T13:05:55.925Z,2.13
2022-10-18T13:08:42.028Z,2.20
2022-10-18T13:11:36.125Z,2.60
2022-10-18T13:14:30.904Z,2.23
2022-10-18T13:17:12.133Z,2.33
2022-10-18T13:20:24.021Z,2.97
2022-10-18T13:23:02.896Z,2.97
2022-10-18T13:25:51.116Z,1.90
2022-10-18T13:28:30.430Z,2.10
2022-10-18T13:31:20.586Z,2.00
2022-10-18T13:33:49.693Z,2.20
2022-10-18T13:36:26.562Z,2.20
2022-10-18T13:39:05.388Z,1.93
2022-10-18T13:42:14.260Z,2.20
2022-10-18T13:44:45.477Z,2.37
2022-10-18T13:47:17.001Z,2.27
2022-10-18T13:50:30.497Z,2.20
2022-10-18T13:53:48.431Z,1.87
2022-10-18T13:56:52.453Z,2.20
2022-10-18T13:59:46.051Z,1.67
2022-10-18T14:02:59.716Z,1.40
2022-10-18T14:05:52.165Z,1.40
2022-10-18T14:08:30.032Z,1.83
2022-10-18T14:11:06.101Z,1.70
2022-10-18T14:13:46.971Z,1.43
2022-10-18T14:16:33.257Z,1.60
2022-10-18T14:19:17.382Z,1.70
2022-10-18T14:21:58.195Z,1.93
2022-10-18T14:24:29.958Z,1.90
2022-10-18T14:27:22.009Z,1.80
2022-10-18T14:30:09.973Z,2.17
2022-10-18T14:32:38.731Z,2.30
2022-10-18T14:35:34.576Z,1.80
2022-10-18T14:38:03.843Z,1.80
2022-10-18T14:40:39.536Z,1.83
2022-10-18T14:43:33.597Z,2.03
2022-10-18T14:46:20.940Z,2.80
2022-10-18T14:49:02.314Z,2.20
2022-10-18T14:51:36.629Z,2.60
2022-10-18T14:56:48.490Z,2.63
2022-10-18T14:59:25.769Z,2.20
2022-10-18T15:02:00.952Z,3.57
2022-10-18T15:04:33.683Z,12.27
2022-10-18T15:07:19.103Z,7.73
2022-10-18T15:09:50.495Z,11.90
2022-10-18T15:12:21.244Z,7.07
2022-10-18T15:14:52.850Z,4.40
2022-10-18T15:17:28.265Z,4.27
2022-10-18T15:20:06.209Z,3.53
2022-10-18T15:22:36.329Z,3.47
2022-10-18T15:25:16.377Z,2.50
2022-10-18T15:27:49.483Z,2.60
2022-10-18T15:30:28.355Z,3.27
2022-10-18T15:33:10.706Z,4.23
2022-10-18T15:35:41.353Z,4.03
2022-10-18T15:38:18.383Z,5.20
2022-10-18T15:40:47.167Z,9.67
2022-10-18T15:43:37.053Z,10.93
2022-10-18T15:46:07.571Z,5.73
2022-10-18T15:48:41.493Z,4.07
2022-10-18T15:51:34.004Z,4.43
2022-10-18T15:54:02.613Z,5.47
2022-10-18T15:56:34.941Z,8.63
2022-10-18T15:59:06.262Z,9.03
2022-10-18T16:02:25.258Z,5.30
2022-10-18T16:04:56.048Z,4.07
2022-10-18T16:07:24.805Z,4.00
2022-10-18T16:09:53.667Z,4.17
2022-10-18T16:12:47.590Z,4.97
2022-10-18T16:15:16.533Z,6.27
2022-10-18T16:17:45.297Z,5.70
2022-10-18T16:20:23.572Z,8.20
2022-10-18T16:23:19.454Z,6.83
2022-10-18T16:25:48.770Z,5.13
2022-10-18T16:28:21.155Z,6.10
2022-10-18T16:30:57.536Z,5.77
2022-10-18T16:33:26.531Z,5.70
2022-10-18T16:35:57.014Z,6.90
2022-10-18T16:38:34.824Z,22.73
2022-10-18T16:41:05.551Z,22.23
2022-10-18T16:43:35.772Z,18.77
2022-10-18T16:46:06.414Z,14.13
2022-10-18T16:48:35.600Z,6.93
2022-10-18T16:51:06.154Z,4.80
2022-10-18T16:53:34.847Z,10.20
2022-10-18T16:56:06.061Z,6.47
2022-10-18T16:59:00.791Z,4.47
2022-10-18T17:01:29.847Z,6.00
2022-10-18T17:03:58.888Z,4.90
2022-10-18T17:06:33.439Z,4.77
2022-10-18T17:09:26.462Z,5.57
2022-10-18T17:11:55.138Z,7.10
2022-10-18T17:14:23.766Z,7.80
2022-10-18T17:16:55.954Z,12.27
2022-10-18T17:19:26.037Z,9.47
2022-10-18T17:22:01.575Z,8.40
2022-10-18T17:24:31.395Z,8.20
2022-10-18T17:27:00.066Z,5.90
2022-10-18T17:29:28.924Z,6.10
2022-10-18T17:31:57.749Z,5.30
2022-10-18T17:34:26.704Z,5.60
2022-10-18T17:36:57.071Z,4.97
2022-10-18T17:39:25.951Z,4.67
2022-10-18T17:41:55.881Z,5.70
2022-10-18T17:44:26.056Z,6.50
2022-10-18T17:46:54.854Z,5.73
2022-10-18T17:49:31.369Z,4.90
2022-10-18T17:52:06.088Z,5.20
2022-10-18T17:54:36.191Z,4.50
2022-10-18T17:57:05.124Z,4.70
2022-10-18T17:59:34.114Z,5.20
2022-10-18T18:02:02.869Z,4.80
2022-10-18T18:04:31.486Z,5.70
2022-10-18T18:07:03.370Z,5.70
2022-10-18T18:09:32.727Z,5.70
2022-10-18T18:12:01.469Z,5.73
2022-10-18T18:14:30.448Z,5.90
2022-10-18T18:17:01.563Z,5.40
2022-10-18T18:19:30.472Z,5.27
2022-10-18T18:22:02.114Z,4.73
2022-10-18T18:24:30.569Z,5.17
2022-10-18T18:26:59.543Z,5.80
2022-10-18T18:29:29.344Z,7.47
2022-10-18T18:31:59.683Z,6.70
2022-10-18T18:34:28.789Z,6.53
2022-10-18T18:36:57.896Z,5.93
2022-10-18T18:39:32.392Z,5.07
2022-10-18T18:42:02.034Z,7.97
2022-10-18T18:44:31.080Z,9.83
2022-10-18T18:47:00.487Z,7.83
2022-10-18T18:49:29.630Z,7.60
2022-10-18T18:51:58.337Z,6.80
2022-10-18T18:54:30.207Z,8.00
2022-10-18T18:56:59.339Z,6.73
2022-10-18T18:59:28.007Z,6.07
2022-10-18T19:01:56.825Z,7.80
2022-10-18T19:04:25.507Z,6.77
2022-10-18T19:06:54.189Z,6.50
2022-10-18T19:09:23.508Z,6.00
2022-10-18T19:11:56.066Z,5.77
2022-10-18T19:14:26.312Z,7.00
2022-10-18T19:16:58.933Z,4.77
2022-10-18T19:19:29.619Z,6.13
2022-10-18T19:22:00.777Z,6.33
2022-10-18T19:24:31.501Z,6.33
2022-10-18T19:27:03.980Z,5.83
2022-10-18T19:29:34.737Z,5.50
2022-10-18T19:32:07.355Z,5.00
2022-10-18T19:34:36.929Z,5.07
2022-10-18T19:37:06.247Z,5.23
2022-10-18T19:39:36.605Z,5.30
2022-10-18T19:42:11.209Z,6.53
2022-10-18T19:44:42.176Z,9.50
2022-10-18T19:47:15.276Z,5.87
2022-10-18T19:49:44.303Z,5.43
2022-10-18T19:52:13.305Z,4.63
2022-10-18T19:54:41.926Z,4.53
2022-10-18T19:57:12.005Z,4.77
2022-10-18T19:59:52.659Z,5.93
2022-10-18T20:02:21.375Z,4.93
2022-10-18T20:04:55.735Z,6.43
2022-10-18T20:07:24.761Z,6.47
2022-10-18T20:09:53.580Z,6.50
2022-10-18T20:12:24.855Z,5.57
2022-10-18T20:14:53.648Z,5.27
2022-10-18T20:17:22.532Z,5.60
2022-10-18T20:20:07.394Z,5.00
2022-10-18T20:22:36.019Z,5.00
2022-10-18T20:25:05.333Z,4.50
2022-10-18T20:27:35.765Z,4.60
2022-10-18T20:30:08.963Z,5.30
2022-10-18T20:32:39.822Z,4.60
2022-10-18T20:35:09.619Z,4.30
2022-10-18T20:37:38.201Z,4.20
2022-10-18T20:40:08.015Z,4.57
2022-10-18T20:42:38.355Z,4.87
2022-10-18T20:45:09.064Z,4.50
2022-10-18T20:47:38.248Z,4.83
2022-10-18T20:50:08.085Z,4.70
2022-10-18T20:52:36.733Z,4.83
2022-10-18T20:55:06.487Z,4.37
2022-10-18T20:57:36.596Z,4.80
2022-10-18T21:00:11.708Z,5.10
2022-10-18T21:02:40.842Z,5.20
2022-10-18T21:05:10.304Z,5.10
2022-10-18T21:07:39.185Z,4.60
2022-10-18T21:10:09.024Z,5.10
2022-10-18T21:12:37.936Z,5.10
2022-10-18T21:15:10.161Z,4.97
2022-10-18T21:17:39.140Z,4.87
2022-10-18T21:20:10.231Z,4.97
2022-10-18T21:22:38.699Z,5.03
2022-10-18T21:25:10.361Z,5.83
2022-10-18T21:27:38.899Z,6.20
2022-10-18T21:30:10.280Z,5.53
2022-10-18T21:32:38.857Z,5.40
2022-10-18T21:35:08.679Z,5.23
2022-10-18T21:37:37.481Z,5.33
2022-10-18T21:40:07.839Z,4.83
2022-10-18T21:42:36.537Z,5.23
2022-10-18T21:45:06.725Z,6.10
2022-10-18T21:47:36.865Z,6.60
2022-10-18T21:50:05.867Z,4.87
2022-10-18T21:52:34.618Z,5.40
2022-10-18T21:55:07.149Z,5.60
2022-10-18T22:00:08.633Z,4.93
2022-10-18T22:02:38.609Z,5.50
2022-10-18T22:05:09.838Z,4.97
2022-10-18T22:07:40.833Z,5.67
2022-10-18T22:10:10.288Z,4.97
2022-10-18T22:12:38.936Z,4.57
2022-10-18T22:15:08.687Z,4.80
2022-10-18T22:17:38.813Z,4.93
2022-10-18T22:20:09.020Z,5.63
2022-10-18T22:22:37.681Z,5.00
2022-10-18T22:25:07.771Z,4.80
2022-10-18T22:27:36.749Z,4.83
2022-10-18T22:30:06.753Z,5.00
2022-10-18T22:32:35.710Z,4.90
2022-10-18T22:35:06.722Z,5.03
2022-10-18T22:37:35.581Z,5.63
2022-10-18T22:40:05.661Z,5.00
2022-10-18T22:45:09.715Z,7.77
2022-10-18T22:47:38.288Z,12.83
2022-10-18T22:50:09.342Z,11.47
2022-10-18T22:52:37.988Z,6.20
2022-10-18T22:55:08.030Z,5.57
2022-10-18T22:57:36.736Z,4.43
2022-10-18T23:00:06.901Z,4.80
2022-10-18T23:02:35.919Z,4.47
2022-10-18T23:05:05.380Z,4.37
2022-10-18T23:07:35.294Z,4.33
2022-10-18T23:10:03.924Z,5.13
2022-10-18T23:12:32.702Z,4.80
2022-10-18T23:15:01.604Z,4.87
2022-10-18T23:17:30.380Z,4.70
2022-10-18T23:19:58.986Z,5.53
2022-10-18T23:22:27.548Z,5.37
2022-10-18T23:24:57.400Z,5.50
2022-10-18T23:27:25.796Z,5.30
2022-10-18T23:29:54.616Z,4.60
2022-10-18T23:32:23.191Z,4.97
2022-10-18T23:34:52.131Z,4.83
2022-10-18T23:37:20.860Z,4.73
2022-10-18T23:39:49.510Z,4.87
2022-10-18T23:42:19.503Z,4.90
2022-10-18T23:44:48.402Z,4.67
2022-10-18T23:47:17.676Z,5.07
2022-10-18T23:49:46.138Z,5.13
2022-10-18T23:52:14.739Z,4.57
2022-10-18T23:57:13.676Z,4.13
2022-10-18T23:59:44.021Z,4.70
